sensor_id;sensor_type;location;lat;lon;timestamp;P1;durP1;ratioP1;P2;durP2;ratioP2
65189;SDS011;51777;53.570;9.984;2024-01-10T00:01:34;38.00;;;20.00;;
65189;SDS011;51777;53.570;9.984;2024-01-10T00:03:59;39.03;;;20.48;;
65189;SDS011;51777;53.570;9.984;2024-01-10T00:06:25;37.75;;;20.60;;
65189;SDS011;51777;53.570;9.984;2024-01-10T00:08:50;38.60;;;20.55;;
65189;SDS011;51777;53.570;9.984;2024-01-10T00:11:16;41.17;;;20.23;;
65189;SDS011;51777;53.570;9.984;2024-01-10T00:13:41;37.42;;;20.10;;
65189;SDS011;51777;53.570;9.984;2024-01-10T00:16:07;37.08;;;20.05;;
65189;SDS011;51777;53.570;9.984;2024-01-10T00:18:33;40.13;;;20.77;;
65189;SDS011;51777;53.570;9.984;2024-01-10T00:20:58;36.72;;;20.58;;
65189;SDS011;51777;53.570;9.984;2024-01-10T00:23:24;37.97;;;19.48;;
65189;SDS011;51777;53.570;9.984;2024-01-10T00:25:49;36.20;;;19.77;;
65189;SDS011;51777;53.570;9.984;2024-01-10T00:28:15;38.78;;;19.55;;
65189;SDS011;51777;53.570;9.984;2024-01-10T00:30:44;36.17;;;20.13;;
65189;SDS011;51777;53.570;9.984;2024-01-10T00:33:12;35.35;;;20.42;;
65189;SDS011;51777;53.570;9.984;2024-01-10T00:35:38;40.70;;;20.13;;
65189;SDS011;51777;53.570;9.984;2024-01-10T00:38:03;39.95;;;20.45;;
65189;SDS011;51777;53.570;9.984;2024-01-10T00:40:29;34.58;;;19.23;;
65189;SDS011;51777;53.570;9.984;2024-01-10T00:42:54;34.63;;;18.92;;
65189;SDS011;51777;53.570;9.984;2024-01-10T00:45:19;40.50;;;19.75;;
65189;SDS011;51777;53.570;9.984;2024-01-10T00:47:45;35.38;;;18.95;;
65189;SDS011;51777;53.570;9.984;2024-01-10T00:50:10;39.53;;;19.40;;
65189;SDS011;51777;53.570;9.984;2024-01-10T00:52:36;33.03;;;18.23;;
65189;SDS011;51777;53.570;9.984;2024-01-10T00:55:01;41.17;;;19.38;;
65189;SDS011;51777;53.570;9.984;2024-01-10T00:57:27;32.53;;;17.10;;
65189;SDS011;51777;53.570;9.984;2024-01-10T00:59:52;36.58;;;18.45;;
65189;SDS011;51777;53.570;9.984;2024-01-10T01:02:18;34.08;;;18.52;;
65189;SDS011;51777;53.570;9.984;2024-01-10T01:04:43;33.83;;;18.45;;
65189;SDS011;51777;53.570;9.984;2024-01-10T01:07:08;31.92;;;18.08;;
65189;SDS011;51777;53.570;9.984;2024-01-10T01:09:34;34.70;;;18.52;;
65189;SDS011;51777;53.570;9.984;2024-01-10T01:11:59;34.97;;;19.17;;
65189;SDS011;51777;53.570;9.984;2024-01-10T01:14:25;29.88;;;16.80;;
65189;SDS011;51777;53.570;9.984;2024-01-10T01:16:51;31.58;;;17.15;;
65189;SDS011;51777;53.570;9.984;2024-01-10T01:19:16;30.15;;;16.65;;
65189;SDS011;51777;53.570;9.984;2024-01-10T01:21:42;32.15;;;17.20;;
65189;SDS011;51777;53.570;9.984;2024-01-10T01:24:08;27.85;;;15.57;;
65189;SDS011;51777;53.570;9.984;2024-01-10T01:26:33;33.20;;;17.00;;
65189;SDS011;51777;53.570;9.984;2024-01-10T01:28:58;36.10;;;16.75;;
65189;SDS011;51777;53.570;9.984;2024-01-10T01:31:24;35.40;;;16.30;;
65189;SDS011;51777;53.570;9.984;2024-01-10T01:33:49;31.95;;;15.73;;
65189;SDS011;51777;53.570;9.984;2024-01-10T01:36:14;38.47;;;15.65;;
65189;SDS011;51777;53.570;9.984;2024-01-10T01:38:40;33.92;;;16.80;;
65189;SDS011;51777;53.570;9.984;2024-01-10T01:41:05;34.55;;;16.00;;
65189;SDS011;51777;53.570;9.984;2024-01-10T01:43:31;30.02;;;15.27;;
65189;SDS011;51777;53.570;9.984;2024-01-10T01:45:57;44.92;;;15.18;;
65189;SDS011;51777;53.570;9.984;2024-01-10T01:48:23;40.20;;;13.20;;
65189;SDS011;51777;53.570;9.984;2024-01-10T01:51:11;31.90;;;13.85;;
65189;SDS011;51777;53.570;9.984;2024-01-10T01:53:37;29.73;;;14.05;;
65189;SDS011;51777;53.570;9.984;2024-01-10T01:56:07;47.35;;;12.60;;
65189;SDS011;51777;53.570;9.984;2024-01-10T02:01:23;31.92;;;14.88;;
65189;SDS011;51777;53.570;9.984;2024-01-10T02:03:48;27.98;;;14.25;;
65189;SDS011;51777;53.570;9.984;2024-01-10T02:06:14;30.45;;;14.23;;
65189;SDS011;51777;53.570;9.984;2024-01-10T02:08:39;28.45;;;13.57;;
65189;SDS011;51777;53.570;9.984;2024-01-10T02:11:05;30.65;;;13.45;;
65189;SDS011;51777;53.570;9.984;2024-01-10T02:13:31;32.95;;;12.43;;
65189;SDS011;51777;53.570;9.984;2024-01-10T02:15:57;32.60;;;15.13;;
65189;SDS011;51777;53.570;9.984;2024-01-10T02:18:24;28.88;;;14.65;;
65189;SDS011;51777;53.570;9.984;2024-01-10T02:20:49;30.42;;;14.07;;
65189;SDS011;51777;53.570;9.984;2024-01-10T02:23:15;34.75;;;15.05;;
65189;SDS011;51777;53.570;9.984;2024-01-10T02:25:40;29.60;;;13.57;;
65189;SDS011;51777;53.570;9.984;2024-01-10T02:28:07;36.90;;;15.27;;
65189;SDS011;51777;53.570;9.984;2024-01-10T02:30:34;31.55;;;15.00;;
65189;SDS011;51777;53.570;9.984;2024-01-10T02:32:59;33.85;;;15.82;;
65189;SDS011;51777;53.570;9.984;2024-01-10T02:35:25;30.17;;;14.07;;
65189;SDS011;51777;53.570;9.984;2024-01-10T02:37:51;31.10;;;14.30;;
65189;SDS011;51777;53.570;9.984;2024-01-10T02:40:17;42.65;;;14.63;;
65189;SDS011;51777;53.570;9.984;2024-01-10T02:42:43;28.02;;;13.13;;
65189;SDS011;51777;53.570;9.984;2024-01-10T02:45:08;35.03;;;14.45;;
65189;SDS011;51777;53.570;9.984;2024-01-10T02:47:34;30.63;;;13.70;;
65189;SDS011;51777;53.570;9.984;2024-01-10T02:50:02;42.95;;;12.02;;
65189;SDS011;51777;53.570;9.984;2024-01-10T02:52:28;31.73;;;13.40;;
65189;SDS011;51777;53.570;9.984;2024-01-10T02:54:53;29.80;;;13.65;;
65189;SDS011;51777;53.570;9.984;2024-01-10T02:57:18;35.20;;;13.68;;
65189;SDS011;51777;53.570;9.984;2024-01-10T02:59:44;32.15;;;13.00;;
65189;SDS011;51777;53.570;9.984;2024-01-10T03:02:09;28.02;;;12.63;;
65189;SDS011;51777;53.570;9.984;2024-01-10T03:04:35;30.45;;;13.45;;
65189;SDS011;51777;53.570;9.984;2024-01-10T03:07:00;29.65;;;13.98;;
65189;SDS011;51777;53.570;9.984;2024-01-10T03:09:26;30.65;;;14.15;;
65189;SDS011;51777;53.570;9.984;2024-01-10T03:11:51;28.42;;;13.80;;
65189;SDS011;51777;53.570;9.984;2024-01-10T03:14:16;30.45;;;14.35;;
65189;SDS011;51777;53.570;9.984;2024-01-10T03:16:42;32.30;;;12.77;;
65189;SDS011;51777;53.570;9.984;2024-01-10T03:19:07;24.48;;;12.13;;
65189;SDS011;51777;53.570;9.984;2024-01-10T03:21:32;28.25;;;13.43;;
65189;SDS011;51777;53.570;9.984;2024-01-10T03:23:58;25.42;;;13.10;;
65189;SDS011;51777;53.570;9.984;2024-01-10T03:26:26;27.95;;;12.63;;
65189;SDS011;51777;53.570;9.984;2024-01-10T03:28:52;24.98;;;13.18;;
65189;SDS011;51777;53.570;9.984;2024-01-10T03:31:18;29.67;;;13.05;;
65189;SDS011;51777;53.570;9.984;2024-01-10T03:33:43;28.02;;;13.25;;
65189;SDS011;51777;53.570;9.984;2024-01-10T03:36:10;24.98;;;13.57;;
65189;SDS011;51777;53.570;9.984;2024-01-10T03:38:38;22.48;;;12.63;;
65189;SDS011;51777;53.570;9.984;2024-01-10T03:41:04;22.15;;;12.35;;
65189;SDS011;51777;53.570;9.984;2024-01-10T03:43:29;23.70;;;13.20;;
65189;SDS011;51777;53.570;9.984;2024-01-10T03:45:55;22.75;;;11.95;;
65189;SDS011;51777;53.570;9.984;2024-01-10T03:48:21;23.85;;;13.68;;
65189;SDS011;51777;53.570;9.984;2024-01-10T03:50:47;26.17;;;13.73;;
65189;SDS011;51777;53.570;9.984;2024-01-10T03:53:12;27.50;;;14.13;;
65189;SDS011;51777;53.570;9.984;2024-01-10T03:55:38;28.48;;;14.75;;
65189;SDS011;51777;53.570;9.984;2024-01-10T03:58:04;28.55;;;14.65;;
65189;SDS011;51777;53.570;9.984;2024-01-10T04:00:30;30.52;;;14.90;;
65189;SDS011;51777;53.570;9.984;2024-01-10T04:02:55;31.15;;;14.98;;
65189;SDS011;51777;53.570;9.984;2024-01-10T04:05:21;26.95;;;13.88;;
65189;SDS011;51777;53.570;9.984;2024-01-10T04:07:46;28.83;;;14.82;;
65189;SDS011;51777;53.570;9.984;2024-01-10T04:13:28;34.42;;;15.15;;
65189;SDS011;51777;53.570;9.984;2024-01-10T04:15:54;27.50;;;14.13;;
65189;SDS011;51777;53.570;9.984;2024-01-10T04:18:19;28.65;;;14.60;;
65189;SDS011;51777;53.570;9.984;2024-01-10T04:20:44;25.95;;;13.93;;
65189;SDS011;51777;53.570;9.984;2024-01-10T04:23:10;26.80;;;13.77;;
65189;SDS011;51777;53.570;9.984;2024-01-10T04:25:35;26.17;;;13.68;;
65189;SDS011;51777;53.570;9.984;2024-01-10T04:28:01;27.45;;;14.77;;
65189;SDS011;51777;53.570;9.984;2024-01-10T04:30:26;28.08;;;14.73;;
65189;SDS011;51777;53.570;9.984;2024-01-10T04:32:52;24.55;;;13.48;;
65189;SDS011;51777;53.570;9.984;2024-01-10T04:35:17;25.90;;;14.57;;
65189;SDS011;51777;53.570;9.984;2024-01-10T04:37:42;29.02;;;15.73;;
65189;SDS011;51777;53.570;9.984;2024-01-10T04:40:08;30.10;;;15.65;;
65189;SDS011;51777;53.570;9.984;2024-01-10T04:42:34;25.77;;;13.43;;
65189;SDS011;51777;53.570;9.984;2024-01-10T04:44:59;29.17;;;14.60;;
65189;SDS011;51777;53.570;9.984;2024-01-10T04:47:28;24.23;;;13.43;;
65189;SDS011;51777;53.570;9.984;2024-01-10T04:49:53;27.55;;;13.25;;
65189;SDS011;51777;53.570;9.984;2024-01-10T04:52:18;27.45;;;14.77;;
65189;SDS011;51777;53.570;9.984;2024-01-10T04:54:44;27.40;;;13.43;;
65189;SDS011;51777;53.570;9.984;2024-01-10T04:57:09;28.77;;;14.27;;
65189;SDS011;51777;53.570;9.984;2024-01-10T04:59:35;23.35;;;13.30;;
65189;SDS011;51777;53.570;9.984;2024-01-10T05:02:00;25.30;;;14.38;;
65189;SDS011;51777;53.570;9.984;2024-01-10T05:04:26;24.92;;;13.27;;
65189;SDS011;51777;53.570;9.984;2024-01-10T05:06:51;25.00;;;13.13;;
65189;SDS011;51777;53.570;9.984;2024-01-10T05:09:17;22.10;;;12.23;;
65189;SDS011;51777;53.570;9.984;2024-01-10T05:11:43;23.48;;;12.43;;
65189;SDS011;51777;53.570;9.984;2024-01-10T05:14:12;23.70;;;13.05;;
65189;SDS011;51777;53.570;9.984;2024-01-10T05:16:37;21.30;;;11.48;;
65189;SDS011;51777;53.570;9.984;2024-01-10T05:19:03;21.67;;;12.13;;
65189;SDS011;51777;53.570;9.984;2024-01-10T05:21:29;22.52;;;12.85;;
65189;SDS011;51777;53.570;9.984;2024-01-10T05:23:56;20.60;;;10.60;;
65189;SDS011;51777;53.570;9.984;2024-01-10T05:26:21;21.45;;;11.40;;
65189;SDS011;51777;53.570;9.984;2024-01-10T05:28:47;17.67;;;9.32;;
65189;SDS011;51777;53.570;9.984;2024-01-10T05:31:12;21.15;;;11.48;;
65189;SDS011;51777;53.570;9.984;2024-01-10T05:33:37;18.88;;;11.13;;
65189;SDS011;51777;53.570;9.984;2024-01-10T05:36:03;19.48;;;10.65;;
65189;SDS011;51777;53.570;9.984;2024-01-10T05:38:28;17.50;;;9.95;;
65189;SDS011;51777;53.570;9.984;2024-01-10T05:40:54;19.23;;;10.35;;
65189;SDS011;51777;53.570;9.984;2024-01-10T05:43:19;19.52;;;9.77;;
65189;SDS011;51777;53.570;9.984;2024-01-10T05:45:44;18.23;;;9.70;;
65189;SDS011;51777;53.570;9.984;2024-01-10T05:48:10;15.73;;;9.73;;
65189;SDS011;51777;53.570;9.984;2024-01-10T05:50:35;17.15;;;9.52;;
65189;SDS011;51777;53.570;9.984;2024-01-10T05:53:01;18.38;;;10.63;;
65189;SDS011;51777;53.570;9.984;2024-01-10T05:55:27;15.57;;;8.10;;
65189;SDS011;51777;53.570;9.984;2024-01-10T05:57:52;13.57;;;8.15;;
65189;SDS011;51777;53.570;9.984;2024-01-10T06:00:18;15.32;;;8.23;;
65189;SDS011;51777;53.570;9.984;2024-01-10T06:02:46;16.00;;;8.88;;
65189;SDS011;51777;53.570;9.984;2024-01-10T06:05:12;14.70;;;8.10;;
65189;SDS011;51777;53.570;9.984;2024-01-10T06:07:38;21.58;;;9.15;;
65189;SDS011;51777;53.570;9.984;2024-01-10T06:10:05;17.55;;;8.70;;
65189;SDS011;51777;53.570;9.984;2024-01-10T06:12:31;10.68;;;6.35;;
65189;SDS011;51777;53.570;9.984;2024-01-10T06:14:57;12.98;;;7.63;;
65189;SDS011;51777;53.570;9.984;2024-01-10T06:17:23;13.63;;;8.18;;
65189;SDS011;51777;53.570;9.984;2024-01-10T06:19:49;14.93;;;8.30;;
65189;SDS011;51777;53.570;9.984;2024-01-10T06:22:15;18.63;;;8.95;;
65189;SDS011;51777;53.570;9.984;2024-01-10T06:27:40;13.45;;;7.93;;
65189;SDS011;51777;53.570;9.984;2024-01-10T06:30:06;11.35;;;5.88;;
65189;SDS011;51777;53.570;9.984;2024-01-10T06:32:32;11.35;;;6.95;;
65189;SDS011;51777;53.570;9.984;2024-01-10T06:34:58;10.82;;;7.38;;
65189;SDS011;51777;53.570;9.984;2024-01-10T06:37:25;12.00;;;7.78;;
65189;SDS011;51777;53.570;9.984;2024-01-10T06:39:51;13.63;;;7.97;;
65189;SDS011;51777;53.570;9.984;2024-01-10T06:42:16;13.80;;;8.40;;
65189;SDS011;51777;53.570;9.984;2024-01-10T06:44:41;15.20;;;8.52;;
65189;SDS011;51777;53.570;9.984;2024-01-10T06:47:07;10.75;;;6.18;;
65189;SDS011;51777;53.570;9.984;2024-01-10T06:49:33;14.07;;;8.05;;
65189;SDS011;51777;53.570;9.984;2024-01-10T06:51:58;14.80;;;8.60;;
65189;SDS011;51777;53.570;9.984;2024-01-10T06:54:25;15.18;;;9.40;;
65189;SDS011;51777;53.570;9.984;2024-01-10T06:56:51;15.95;;;9.13;;
65189;SDS011;51777;53.570;9.984;2024-01-10T06:59:16;16.27;;;9.38;;
65189;SDS011;51777;53.570;9.984;2024-01-10T07:01:42;14.32;;;9.25;;
65189;SDS011;51777;53.570;9.984;2024-01-10T07:04:08;13.60;;;8.90;;
65189;SDS011;51777;53.570;9.984;2024-01-10T07:06:33;14.32;;;8.80;;
65189;SDS011;51777;53.570;9.984;2024-01-10T07:08:59;15.57;;;8.95;;
65189;SDS011;51777;53.570;9.984;2024-01-10T07:11:24;16.90;;;9.70;;
65189;SDS011;51777;53.570;9.984;2024-01-10T07:13:53;14.93;;;8.90;;
65189;SDS011;51777;53.570;9.984;2024-01-10T07:16:18;14.85;;;8.77;;
65189;SDS011;51777;53.570;9.984;2024-01-10T07:18:44;15.85;;;9.63;;
65189;SDS011;51777;53.570;9.984;2024-01-10T07:21:15;18.67;;;8.80;;
65189;SDS011;51777;53.570;9.984;2024-01-10T07:23:41;15.38;;;9.55;;
65189;SDS011;51777;53.570;9.984;2024-01-10T07:26:08;16.48;;;9.63;;
65189;SDS011;51777;53.570;9.984;2024-01-10T07:28:33;19.60;;;9.63;;
65189;SDS011;51777;53.570;9.984;2024-01-10T07:30:59;15.85;;;9.25;;
65189;SDS011;51777;53.570;9.984;2024-01-10T07:33:28;17.58;;;9.52;;
65189;SDS011;51777;53.570;9.984;2024-01-10T07:35:56;13.07;;;9.15;;
65189;SDS011;51777;53.570;9.984;2024-01-10T07:38:22;18.77;;;10.57;;
65189;SDS011;51777;53.570;9.984;2024-01-10T07:40:48;14.93;;;8.98;;
65189;SDS011;51777;53.570;9.984;2024-01-10T07:43:14;17.98;;;8.32;;
65189;SDS011;51777;53.570;9.984;2024-01-10T07:45:40;16.52;;;9.90;;
65189;SDS011;51777;53.570;9.984;2024-01-10T07:48:06;16.88;;;10.85;;
65189;SDS011;51777;53.570;9.984;2024-01-10T07:50:32;17.40;;;10.13;;
65189;SDS011;51777;53.570;9.984;2024-01-10T07:52:58;18.85;;;10.38;;
65189;SDS011;51777;53.570;9.984;2024-01-10T07:55:26;15.77;;;9.20;;
65189;SDS011;51777;53.570;9.984;2024-01-10T07:57:54;14.10;;;9.15;;
65189;SDS011;51777;53.570;9.984;2024-01-10T08:00:20;17.75;;;10.23;;
65189;SDS011;51777;53.570;9.984;2024-01-10T08:02:45;16.83;;;9.38;;
65189;SDS011;51777;53.570;9.984;2024-01-10T08:05:11;19.58;;;11.27;;
65189;SDS011;51777;53.570;9.984;2024-01-10T08:07:37;17.83;;;11.00;;
65189;SDS011;51777;53.570;9.984;2024-01-10T08:10:07;18.67;;;11.05;;
65189;SDS011;51777;53.570;9.984;2024-01-10T08:12:34;19.63;;;10.95;;
65189;SDS011;51777;53.570;9.984;2024-01-10T08:15:11;18.35;;;11.50;;
65189;SDS011;51777;53.570;9.984;2024-01-10T08:17:37;18.73;;;10.95;;
65189;SDS011;51777;53.570;9.984;2024-01-10T08:20:04;19.45;;;10.88;;
65189;SDS011;51777;53.570;9.984;2024-01-10T08:22:31;29.00;;;10.95;;
65189;SDS011;51777;53.570;9.984;2024-01-10T08:24:58;19.13;;;9.75;;
65189;SDS011;51777;53.570;9.984;2024-01-10T08:27:23;22.42;;;10.52;;
65189;SDS011;51777;53.570;9.984;2024-01-10T08:29:50;22.25;;;9.82;;
65189;SDS011;51777;53.570;9.984;2024-01-10T08:32:16;16.05;;;9.65;;
65189;SDS011;51777;53.570;9.984;2024-01-10T08:34:43;17.65;;;10.50;;
65189;SDS011;51777;53.570;9.984;2024-01-10T08:37:10;37.35;;;10.40;;
65189;SDS011;51777;53.570;9.984;2024-01-10T08:39:35;28.95;;;11.13;;
65189;SDS011;51777;53.570;9.984;2024-01-10T08:42:01;21.10;;;10.38;;
65189;SDS011;51777;53.570;9.984;2024-01-10T08:44:26;17.45;;;10.23;;
65189;SDS011;51777;53.570;9.984;2024-01-10T08:46:52;18.05;;;11.20;;
65189;SDS011;51777;53.570;9.984;2024-01-10T08:49:18;19.85;;;10.23;;
65189;SDS011;51777;53.570;9.984;2024-01-10T08:51:43;19.92;;;11.25;;
65189;SDS011;51777;53.570;9.984;2024-01-10T08:54:11;16.70;;;9.90;;
65189;SDS011;51777;53.570;9.984;2024-01-10T08:56:41;18.60;;;10.60;;
65189;SDS011;51777;53.570;9.984;2024-01-10T08:59:09;18.25;;;10.45;;
65189;SDS011;51777;53.570;9.984;2024-01-10T09:01:35;16.23;;;9.93;;
65189;SDS011;51777;53.570;9.984;2024-01-10T09:04:01;19.08;;;10.60;;
65189;SDS011;51777;53.570;9.984;2024-01-10T09:06:28;17.90;;;9.48;;
65189;SDS011;51777;53.570;9.984;2024-01-10T09:08:53;18.92;;;9.48;;
65189;SDS011;51777;53.570;9.984;2024-01-10T09:11:19;19.85;;;10.73;;
65189;SDS011;51777;53.570;9.984;2024-01-10T09:13:44;18.90;;;11.13;;
65189;SDS011;51777;53.570;9.984;2024-01-10T09:16:09;19.42;;;11.45;;
65189;SDS011;51777;53.570;9.984;2024-01-10T09:18:36;20.55;;;10.88;;
65189;SDS011;51777;53.570;9.984;2024-01-10T09:21:03;19.15;;;10.48;;
65189;SDS011;51777;53.570;9.984;2024-01-10T09:23:30;18.83;;;10.43;;
65189;SDS011;51777;53.570;9.984;2024-01-10T09:25:55;18.38;;;10.77;;
65189;SDS011;51777;53.570;9.984;2024-01-10T09:28:25;16.30;;;9.65;;
65189;SDS011;51777;53.570;9.984;2024-01-10T09:30:51;17.85;;;10.82;;
65189;SDS011;51777;53.570;9.984;2024-01-10T09:33:17;18.00;;;10.88;;
65189;SDS011;51777;53.570;9.984;2024-01-10T09:35:42;18.80;;;9.48;;
65189;SDS011;51777;53.570;9.984;2024-01-10T09:38:08;16.67;;;10.27;;
65189;SDS011;51777;53.570;9.984;2024-01-10T09:40:34;12.30;;;7.60;;
65189;SDS011;51777;53.570;9.984;2024-01-10T09:43:00;15.25;;;9.00;;
65189;SDS011;51777;53.570;9.984;2024-01-10T09:45:26;21.15;;;8.88;;
65189;SDS011;51777;53.570;9.984;2024-01-10T09:47:54;18.85;;;10.55;;
65189;SDS011;51777;53.570;9.984;2024-01-10T09:50:22;17.20;;;10.40;;
65189;SDS011;51777;53.570;9.984;2024-01-10T09:55:20;17.92;;;9.82;;
65189;SDS011;51777;53.570;9.984;2024-01-10T09:57:49;24.60;;;10.85;;
65189;SDS011;51777;53.570;9.984;2024-01-10T10:00:15;20.60;;;10.15;;
65189;SDS011;51777;53.570;9.984;2024-01-10T10:02:41;21.55;;;10.82;;
65189;SDS011;51777;53.570;9.984;2024-01-10T10:05:14;18.02;;;10.25;;
65189;SDS011;51777;53.570;9.984;2024-01-10T10:07:48;17.05;;;10.35;;
65189;SDS011;51777;53.570;9.984;2024-01-10T10:10:18;19.17;;;10.98;;
65189;SDS011;51777;53.570;9.984;2024-01-10T10:12:45;18.65;;;10.02;;
65189;SDS011;51777;53.570;9.984;2024-01-10T10:15:12;18.50;;;10.90;;
65189;SDS011;51777;53.570;9.984;2024-01-10T10:17:45;18.00;;;10.02;;
65189;SDS011;51777;53.570;9.984;2024-01-10T10:23:06;20.88;;;10.57;;
65189;SDS011;51777;53.570;9.984;2024-01-10T10:25:36;19.88;;;10.95;;
65189;SDS011;51777;53.570;9.984;2024-01-10T10:28:04;21.80;;;12.52;;
65189;SDS011;51777;53.570;9.984;2024-01-10T10:30:31;18.25;;;10.93;;
65189;SDS011;51777;53.570;9.984;2024-01-10T10:32:57;19.23;;;12.48;;
65189;SDS011;51777;53.570;9.984;2024-01-10T10:35:24;21.05;;;11.75;;
65189;SDS011;51777;53.570;9.984;2024-01-10T10:37:51;21.00;;;11.23;;
65189;SDS011;51777;53.570;9.984;2024-01-10T10:40:18;20.80;;;11.18;;
65189;SDS011;51777;53.570;9.984;2024-01-10T10:42:46;21.13;;;12.15;;
65189;SDS011;51777;53.570;9.984;2024-01-10T10:48:00;19.35;;;11.70;;
65189;SDS011;51777;53.570;9.984;2024-01-10T10:50:33;21.45;;;12.80;;
65189;SDS011;51777;53.570;9.984;2024-01-10T10:53:02;21.80;;;12.13;;
65189;SDS011;51777;53.570;9.984;2024-01-10T10:55:29;20.73;;;12.10;;
65189;SDS011;51777;53.570;9.984;2024-01-10T10:57:55;19.67;;;12.20;;
65189;SDS011;51777;53.570;9.984;2024-01-10T11:00:21;17.48;;;10.73;;
65189;SDS011;51777;53.570;9.984;2024-01-10T11:02:55;23.20;;;11.57;;
65189;SDS011;51777;53.570;9.984;2024-01-10T11:05:21;20.10;;;11.65;;
65189;SDS011;51777;53.570;9.984;2024-01-10T11:07:47;19.85;;;11.60;;
65189;SDS011;51777;53.570;9.984;2024-01-10T11:10:33;18.17;;;9.95;;
65189;SDS011;51777;53.570;9.984;2024-01-10T11:18:33;21.48;;;12.00;;
65189;SDS011;51777;53.570;9.984;2024-01-10T11:21:18;22.27;;;11.50;;
65189;SDS011;51777;53.570;9.984;2024-01-10T11:23:54;18.67;;;11.35;;
65189;SDS011;51777;53.570;9.984;2024-01-10T11:26:21;18.70;;;10.93;;
65189;SDS011;51777;53.570;9.984;2024-01-10T11:28:47;17.48;;;10.60;;
65189;SDS011;51777;53.570;9.984;2024-01-10T11:31:14;20.83;;;12.73;;
65189;SDS011;51777;53.570;9.984;2024-01-10T11:33:41;18.13;;;11.00;;
65189;SDS011;51777;53.570;9.984;2024-01-10T11:36:09;20.13;;;12.18;;
65189;SDS011;51777;53.570;9.984;2024-01-10T11:38:40;19.50;;;11.50;;
65189;SDS011;51777;53.570;9.984;2024-01-10T11:41:27;18.38;;;11.02;;
65189;SDS011;51777;53.570;9.984;2024-01-10T11:46:38;12.02;;;7.25;;
65189;SDS011;51777;53.570;9.984;2024-01-10T11:51:43;15.02;;;8.52;;
65189;SDS011;51777;53.570;9.984;2024-01-10T11:57:27;17.25;;;10.43;;
65189;SDS011;51777;53.570;9.984;2024-01-10T11:59:56;16.02;;;10.38;;
65189;SDS011;51777;53.570;9.984;2024-01-10T12:02:25;14.25;;;8.63;;
65189;SDS011;51777;53.570;9.984;2024-01-10T12:04:58;13.13;;;8.75;;
65189;SDS011;51777;53.570;9.984;2024-01-10T12:07:29;12.40;;;8.13;;
65189;SDS011;51777;53.570;9.984;2024-01-10T12:09:59;11.80;;;8.02;;
65189;SDS011;51777;53.570;9.984;2024-01-10T12:12:39;12.88;;;7.75;;
65189;SDS011;51777;53.570;9.984;2024-01-10T12:15:07;12.38;;;7.40;;
65189;SDS011;51777;53.570;9.984;2024-01-10T12:17:37;10.43;;;7.28;;
65189;SDS011;51777;53.570;9.984;2024-01-10T12:20:11;11.20;;;7.47;;
65189;SDS011;51777;53.570;9.984;2024-01-10T12:22:39;11.05;;;6.72;;
65189;SDS011;51777;53.570;9.984;2024-01-10T12:25:15;10.63;;;6.90;;
65189;SDS011;51777;53.570;9.984;2024-01-10T12:27:42;9.35;;;6.50;;
65189;SDS011;51777;53.570;9.984;2024-01-10T12:30:11;12.93;;;6.90;;
65189;SDS011;51777;53.570;9.984;2024-01-10T12:32:38;12.45;;;7.30;;
65189;SDS011;51777;53.570;9.984;2024-01-10T12:35:04;11.73;;;7.47;;
65189;SDS011;51777;53.570;9.984;2024-01-10T12:37:31;11.52;;;7.00;;
65189;SDS011;51777;53.570;9.984;2024-01-10T12:40:21;10.38;;;6.40;;
65189;SDS011;51777;53.570;9.984;2024-01-10T12:42:47;11.27;;;6.95;;
65189;SDS011;51777;53.570;9.984;2024-01-10T12:45:22;10.48;;;6.82;;
65189;SDS011;51777;53.570;9.984;2024-01-10T12:47:48;11.43;;;7.15;;
65189;SDS011;51777;53.570;9.984;2024-01-10T12:50:14;8.77;;;6.38;;
65189;SDS011;51777;53.570;9.984;2024-01-10T12:52:48;11.07;;;7.32;;
65189;SDS011;51777;53.570;9.984;2024-01-10T12:55:16;15.70;;;7.60;;
65189;SDS011;51777;53.570;9.984;2024-01-10T12:57:53;12.10;;;7.75;;
65189;SDS011;51777;53.570;9.984;2024-01-10T13:00:19;12.57;;;7.25;;
65189;SDS011;51777;53.570;9.984;2024-01-10T13:02:46;13.45;;;8.35;;
65189;SDS011;51777;53.570;9.984;2024-01-10T13:05:12;15.40;;;7.40;;
65189;SDS011;51777;53.570;9.984;2024-01-10T13:07:38;10.02;;;6.75;;
65189;SDS011;51777;53.570;9.984;2024-01-10T13:10:04;11.88;;;7.22;;
65189;SDS011;51777;53.570;9.984;2024-01-10T13:12:36;11.23;;;7.28;;
65189;SDS011;51777;53.570;9.984;2024-01-10T13:15:12;10.77;;;6.75;;
65189;SDS011;51777;53.570;9.984;2024-01-10T13:17:39;13.13;;;7.00;;
65189;SDS011;51777;53.570;9.984;2024-01-10T13:20:09;13.23;;;8.10;;
65189;SDS011;51777;53.570;9.984;2024-01-10T13:22:36;12.35;;;7.00;;
65189;SDS011;51777;53.570;9.984;2024-01-10T13:25:02;13.02;;;7.88;;
65189;SDS011;51777;53.570;9.984;2024-01-10T13:27:28;12.50;;;7.68;;
65189;SDS011;51777;53.570;9.984;2024-01-10T13:29:54;13.48;;;7.82;;
65189;SDS011;51777;53.570;9.984;2024-01-10T13:34:59;15.07;;;8.00;;
65189;SDS011;51777;53.570;9.984;2024-01-10T13:37:24;14.35;;;7.55;;
65189;SDS011;51777;53.570;9.984;2024-01-10T13:39:54;12.07;;;7.28;;
65189;SDS011;51777;53.570;9.984;2024-01-10T13:42:19;12.50;;;7.57;;
65189;SDS011;51777;53.570;9.984;2024-01-10T13:44:45;14.15;;;7.90;;
65189;SDS011;51777;53.570;9.984;2024-01-10T13:47:11;17.15;;;8.38;;
65189;SDS011;51777;53.570;9.984;2024-01-10T13:49:37;13.02;;;7.03;;
65189;SDS011;51777;53.570;9.984;2024-01-10T13:52:02;16.20;;;7.75;;
65189;SDS011;51777;53.570;9.984;2024-01-10T13:54:33;11.88;;;6.95;;
65189;SDS011;51777;53.570;9.984;2024-01-10T13:59:43;11.93;;;7.88;;
65189;SDS011;51777;53.570;9.984;2024-01-10T14:02:09;13.60;;;7.97;;
65189;SDS011;51777;53.570;9.984;2024-01-10T14:04:35;13.40;;;7.53;;
65189;SDS011;51777;53.570;9.984;2024-01-10T14:07:01;13.23;;;7.93;;
65189;SDS011;51777;53.570;9.984;2024-01-10T14:09:28;13.15;;;8.00;;
65189;SDS011;51777;53.570;9.984;2024-01-10T14:12:08;15.15;;;7.80;;
65189;SDS011;51777;53.570;9.984;2024-01-10T14:14:33;26.38;;;7.80;;
65189;SDS011;51777;53.570;9.984;2024-01-10T14:16:59;20.02;;;8.25;;
65189;SDS011;51777;53.570;9.984;2024-01-10T14:19:24;11.60;;;7.97;;
65189;SDS011;51777;53.570;9.984;2024-01-10T14:21:50;14.85;;;8.75;;
65189;SDS011;51777;53.570;9.984;2024-01-10T14:24:16;14.00;;;8.25;;
65189;SDS011;51777;53.570;9.984;2024-01-10T14:26:41;12.98;;;8.32;;
65189;SDS011;51777;53.570;9.984;2024-01-10T14:29:10;11.77;;;6.95;;
65189;SDS011;51777;53.570;9.984;2024-01-10T14:31:44;15.48;;;9.00;;
65189;SDS011;51777;53.570;9.984;2024-01-10T14:34:28;15.57;;;8.32;;
65189;SDS011;51777;53.570;9.984;2024-01-10T14:36:56;15.75;;;8.30;;
65189;SDS011;51777;53.570;9.984;2024-01-10T14:39:22;15.18;;;8.43;;
65189;SDS011;51777;53.570;9.984;2024-01-10T14:41:50;13.98;;;7.97;;
65189;SDS011;51777;53.570;9.984;2024-01-10T14:44:15;14.77;;;8.63;;
65189;SDS011;51777;53.570;9.984;2024-01-10T14:46:45;12.32;;;7.78;;
65189;SDS011;51777;53.570;9.984;2024-01-10T14:49:11;14.45;;;8.00;;
65189;SDS011;51777;53.570;9.984;2024-01-10T14:51:36;11.60;;;7.72;;
65189;SDS011;51777;53.570;9.984;2024-01-10T14:54:02;13.40;;;8.15;;
65189;SDS011;51777;53.570;9.984;2024-01-10T14:56:28;13.00;;;8.10;;
65189;SDS011;51777;53.570;9.984;2024-01-10T14:58:54;12.95;;;8.10;;
65189;SDS011;51777;53.570;9.984;2024-01-10T15:01:19;13.00;;;8.35;;